sensor_id;sensor_type;location;lat;lon;timestamp;pressure;altitude;pressure_sealevel;temperature;humidity
2785;BME280;57944;48.722;9.316;2023-07-20T00:01:53;97933.34;;;19.04;79.19
2785;BME280;57944;48.722;9.316;2023-07-20T00:04:23;97926.59;;;18.98;79.78
2785;BME280;57944;48.722;9.316;2023-07-20T00:06:54;97928.84;;;18.89;80.20
2785;BME280;57944;48.722;9.316;2023-07-20T00:09:25;97934.69;;;18.80;80.07
2785;BME280;57944;48.722;9.316;2023-07-20T00:11:58;97929.13;;;18.66;79.41
2785;BME280;57944;48.722;9.316;2023-07-20T00:14:30;97938.47;;;18.72;78.55
2785;BME280;57944;48.722;9.316;2023-07-20T00:17:00;97937.91;;;18.65;75.22
2785;BME280;57944;48.722;9.316;2023-07-20T00:19:32;97939.84;;;18.52;77.30
2785;BME280;57944;48.722;9.316;2023-07-20T00:22:03;97925.28;;;18.41;75.88
2785;BME280;57944;48.722;9.316;2023-07-20T00:24:34;97930.91;;;18.33;75.27
2785;BME280;57944;48.722;9.316;2023-07-20T00:27:07;97932.91;;;18.26;73.49
2785;BME280;57944;48.722;9.316;2023-07-20T00:29:38;97928.44;;;18.21;74.26
2785;BME280;57944;48.722;9.316;2023-07-20T00:32:09;97934.09;;;18.18;73.92
2785;BME280;57944;48.722;9.316;2023-07-20T00:34:40;97928.28;;;18.28;71.91
2785;BME280;57944;48.722;9.316;2023-07-20T00:37:10;97930.06;;;18.27;68.34
2785;BME280;57944;48.722;9.316;2023-07-20T00:39:41;97932.19;;;18.30;66.60
2785;BME280;57944;48.722;9.316;2023-07-20T00:42:14;97936.53;;;18.30;65.78
2785;BME280;57944;48.722;9.316;2023-07-20T00:44:45;97931.16;;;18.31;68.25
2785;BME280;57944;48.722;9.316;2023-07-20T00:47:15;97926.13;;;18.20;65.33
2785;BME280;57944;48.722;9.316;2023-07-20T00:49:47;97933.81;;;18.15;66.74
2785;BME280;57944;48.722;9.316;2023-07-20T00:52:20;97925.59;;;18.18;66.02
2785;BME280;57944;48.722;9.316;2023-07-20T00:54:52;97926.13;;;18.20;64.37
2785;BME280;57944;48.722;9.316;2023-07-20T00:57:27;97931.16;;;18.09;65.92
2785;BME280;57944;48.722;9.316;2023-07-20T00:59:59;97938.34;;;18.07;66.20
2785;BME280;57944;48.722;9.316;2023-07-20T01:02:30;97937.78;;;18.00;67.95
2785;BME280;57944;48.722;9.316;2023-07-20T01:05:00;97937.88;;;18.11;68.03
2785;BME280;57944;48.722;9.316;2023-07-20T01:07:36;97939.94;;;18.08;68.91
2785;BME280;57944;48.722;9.316;2023-07-20T01:10:12;97937.84;;;18.05;69.54
2785;BME280;57944;48.722;9.316;2023-07-20T01:12:52;97933.28;;;17.91;71.70
2785;BME280;57944;48.722;9.316;2023-07-20T01:15:23;97937.06;;;17.83;73.02
2785;BME280;57944;48.722;9.316;2023-07-20T01:17:53;97934.25;;;17.68;74.25
2785;BME280;57944;48.722;9.316;2023-07-20T01:20:24;97943.44;;;17.58;76.12
2785;BME280;57944;48.722;9.316;2023-07-20T01:23:28;97945.63;;;17.50;78.64
2785;BME280;57944;48.722;9.316;2023-07-20T01:26:12;97947.19;;;17.34;79.61
2785;BME280;57944;48.722;9.316;2023-07-20T01:29:11;97937.56;;;17.46;79.48
2785;BME280;57944;48.722;9.316;2023-07-20T01:31:52;97937.44;;;17.36;79.58
2785;BME280;57944;48.722;9.316;2023-07-20T01:34:25;97949.22;;;17.32;80.36
2785;BME280;57944;48.722;9.316;2023-07-20T01:36:57;97943.53;;;17.30;82.18
2785;BME280;57944;48.722;9.316;2023-07-20T01:39:28;97943.91;;;17.22;82.51
2785;BME280;57944;48.722;9.316;2023-07-20T01:41:59;97942.28;;;17.15;84.07
2785;BME280;57944;48.722;9.316;2023-07-20T01:44:30;97937.78;;;17.06;85.18
2785;BME280;57944;48.722;9.316;2023-07-20T01:47:04;97938.56;;;17.06;86.28
2785;BME280;57944;48.722;9.316;2023-07-20T01:49:34;97950.25;;;16.97;86.87
2785;BME280;57944;48.722;9.316;2023-07-20T01:52:06;97940.72;;;16.81;89.31
2785;BME280;57944;48.722;9.316;2023-07-20T01:54:37;97940.78;;;16.69;90.11
2785;BME280;57944;48.722;9.316;2023-07-20T01:57:08;97942.91;;;16.60;91.67
2785;BME280;57944;48.722;9.316;2023-07-20T01:59:38;97939.16;;;16.51;91.86
2785;BME280;57944;48.722;9.316;2023-07-20T02:02:11;97934.25;;;16.49;92.22
2785;BME280;57944;48.722;9.316;2023-07-20T02:04:42;97936.41;;;16.41;92.49
2785;BME280;57944;48.722;9.316;2023-07-20T02:07:14;97942.09;;;16.43;93.12
2785;BME280;57944;48.722;9.316;2023-07-20T02:09:45;97935.78;;;16.34;94.06
2785;BME280;57944;48.722;9.316;2023-07-20T02:12:15;97944.94;;;16.29;93.65
2785;BME280;57944;48.722;9.316;2023-07-20T02:14:47;97945.41;;;16.26;94.25
2785;BME280;57944;48.722;9.316;2023-07-20T02:17:21;97944.16;;;16.29;95.54
2785;BME280;57944;48.722;9.316;2023-07-20T02:19:53;97949.34;;;16.17;96.02
2785;BME280;57944;48.722;9.316;2023-07-20T02:22:29;97943.47;;;16.05;98.07
2785;BME280;57944;48.722;9.316;2023-07-20T02:25:00;97945.38;;;15.98;99.47
2785;BME280;57944;48.722;9.316;2023-07-20T02:27:31;97937.66;;;15.98;99.80
2785;BME280;57944;48.722;9.316;2023-07-20T02:30:02;97943.47;;;15.93;100.00
2785;BME280;57944;48.722;9.316;2023-07-20T02:32:35;97939.03;;;15.89;99.98
2785;BME280;57944;48.722;9.316;2023-07-20T02:35:07;97943.94;;;15.90;100.00
2785;BME280;57944;48.722;9.316;2023-07-20T02:37:38;97937.47;;;15.88;100.00
2785;BME280;57944;48.722;9.316;2023-07-20T02:40:09;97946.66;;;15.83;100.00
2785;BME280;57944;48.722;9.316;2023-07-20T02:42:40;97942.41;;;15.77;100.00
2785;BME280;57944;48.722;9.316;2023-07-20T02:45:11;97944.28;;;15.82;100.00
2785;BME280;57944;48.722;9.316;2023-07-20T02:47:44;97945.97;;;15.76;100.00
2785;BME280;57944;48.722;9.316;2023-07-20T02:50:15;97948.09;;;15.68;100.00
2785;BME280;57944;48.722;9.316;2023-07-20T02:52:46;97955.22;;;15.65;100.00
2785;BME280;57944;48.722;9.316;2023-07-20T02:55:18;97957.16;;;15.58;100.00
2785;BME280;57944;48.722;9.316;2023-07-20T02:57:48;97952.56;;;15.49;100.00
2785;BME280;57944;48.722;9.316;2023-07-20T03:00:19;97953.66;;;15.29;100.00
2785;BME280;57944;48.722;9.316;2023-07-20T03:02:53;97962.50;;;15.33;100.00
2785;BME280;57944;48.722;9.316;2023-07-20T03:05:25;97959.03;;;15.28;100.00
2785;BME280;57944;48.722;9.316;2023-07-20T03:07:56;97962.81;;;15.25;100.00
2785;BME280;57944;48.722;9.316;2023-07-20T03:10:30;97959.81;;;15.28;100.00
2785;BME280;57944;48.722;9.316;2023-07-20T03:13:00;97964.63;;;15.36;100.00
2785;BME280;57944;48.722;9.316;2023-07-20T03:15:31;97965.72;;;15.40;100.00
2785;BME280;57944;48.722;9.316;2023-07-20T03:18:04;97960.16;;;15.44;100.00
2785;BME280;57944;48.722;9.316;2023-07-20T03:20:36;97954.69;;;15.40;100.00
2785;BME280;57944;48.722;9.316;2023-07-20T03:23:06;97958.59;;;15.42;100.00
2785;BME280;57944;48.722;9.316;2023-07-20T03:25:37;97965.41;;;15.49;100.00
2785;BME280;57944;48.722;9.316;2023-07-20T03:28:08;97964.41;;;15.50;100.00
2785;BME280;57944;48.722;9.316;2023-07-20T03:30:38;97962.38;;;15.40;100.00
2785;BME280;57944;48.722;9.316;2023-07-20T03:33:12;97968.22;;;15.35;100.00
2785;BME280;57944;48.722;9.316;2023-07-20T03:35:43;97969.44;;;15.21;100.00
2785;BME280;57944;48.722;9.316;2023-07-20T03:38:13;97974.19;;;15.17;100.00
2785;BME280;57944;48.722;9.316;2023-07-20T03:40:50;97974.13;;;15.24;100.00
2785;BME280;57944;48.722;9.316;2023-07-20T03:43:21;97974.22;;;15.29;100.00
2785;BME280;57944;48.722;9.316;2023-07-20T03:45:52;97987.63;;;15.31;100.00
2785;BME280;57944;48.722;9.316;2023-07-20T03:48:27;97977.91;;;15.33;100.00
2785;BME280;57944;48.722;9.316;2023-07-20T03:50:57;97978.69;;;15.34;100.00
2785;BME280;57944;48.722;9.316;2023-07-20T03:53:28;97982.47;;;15.43;100.00
2785;BME280;57944;48.722;9.316;2023-07-20T03:55:59;97979.69;;;15.45;100.00
2785;BME280;57944;48.722;9.316;2023-07-20T03:58:30;97983.03;;;15.45;100.00
2785;BME280;57944;48.722;9.316;2023-07-20T04:01:00;97979.38;;;15.53;100.00
2785;BME280;57944;48.722;9.316;2023-07-20T04:03:34;97983.03;;;15.57;100.00
2785;BME280;57944;48.722;9.316;2023-07-20T04:06:05;97983.28;;;15.67;100.00
2785;BME280;57944;48.722;9.316;2023-07-20T04:08:36;97989.56;;;15.71;100.00
2785;BME280;57944;48.722;9.316;2023-07-20T04:11:07;97986.63;;;15.79;100.00
2785;BME280;57944;48.722;9.316;2023-07-20T04:13:37;97983.66;;;15.82;100.00
2785;BME280;57944;48.722;9.316;2023-07-20T04:16:08;97992.66;;;15.97;100.00
2785;BME280;57944;48.722;9.316;2023-07-20T04:18:41;97993.06;;;16.17;100.00
2785;BME280;57944;48.722;9.316;2023-07-20T04:21:12;98001.84;;;16.45;100.00
2785;BME280;57944;48.722;9.316;2023-07-20T04:23:42;98001.34;;;16.88;96.07
2785;BME280;57944;48.722;9.316;2023-07-20T04:26:14;98005.34;;;17.30;91.55
2785;BME280;57944;48.722;9.316;2023-07-20T04:28:45;98005.19;;;17.53;88.64
2785;BME280;57944;48.722;9.316;2023-07-20T04:31:25;97997.06;;;17.61;86.75
2785;BME280;57944;48.722;9.316;2023-07-20T04:33:59;97996.63;;;18.03;84.26
2785;BME280;57944;48.722;9.316;2023-07-20T04:36:30;97992.66;;;18.67;79.67
2785;BME280;57944;48.722;9.316;2023-07-20T04:39:00;97986.69;;;19.20;74.07
2785;BME280;57944;48.722;9.316;2023-07-20T04:41:43;97993.91;;;19.56;70.42
2785;BME280;57944;48.722;9.316;2023-07-20T04:44:15;98001.78;;;19.71;68.75
2785;BME280;57944;48.722;9.316;2023-07-20T04:46:46;98001.19;;;20.06;66.25
2785;BME280;57944;48.722;9.316;2023-07-20T04:49:19;98001.00;;;20.34;65.02
2785;BME280;57944;48.722;9.316;2023-07-20T04:51:50;98001.38;;;20.83;61.69
2785;BME280;57944;48.722;9.316;2023-07-20T04:54:22;97999.88;;;21.13;58.57
2785;BME280;57944;48.722;9.316;2023-07-20T04:56:55;97999.88;;;21.13;59.01
2785;BME280;57944;48.722;9.316;2023-07-20T04:59:25;98008.41;;;20.98;58.28
2785;BME280;57944;48.722;9.316;2023-07-20T05:01:56;98004.78;;;21.09;58.78
2785;BME280;57944;48.722;9.316;2023-07-20T05:04:29;98007.88;;;21.22;57.91
2785;BME280;57944;48.722;9.316;2023-07-20T05:07:06;98004.28;;;21.07;58.20
2785;BME280;57944;48.722;9.316;2023-07-20T05:09:36;98009.94;;;20.89;58.75
2785;BME280;57944;48.722;9.316;2023-07-20T05:12:09;98005.28;;;20.86;60.00
2785;BME280;57944;48.722;9.316;2023-07-20T05:14:39;98009.69;;;20.80;60.62
2785;BME280;57944;48.722;9.316;2023-07-20T05:17:10;98012.53;;;20.89;60.08
2785;BME280;57944;48.722;9.316;2023-07-20T05:19:43;98000.38;;;20.84;60.17
2785;BME280;57944;48.722;9.316;2023-07-20T05:22:14;98007.34;;;20.89;59.46
2785;BME280;57944;48.722;9.316;2023-07-20T05:24:45;98005.78;;;20.72;60.75
2785;BME280;57944;48.722;9.316;2023-07-20T05:27:15;98007.09;;;20.80;61.04
2785;BME280;57944;48.722;9.316;2023-07-20T05:29:46;98007.91;;;21.06;59.73
2785;BME280;57944;48.722;9.316;2023-07-20T05:32:19;97997.53;;;21.22;59.87
2785;BME280;57944;48.722;9.316;2023-07-20T05:34:54;98002.19;;;21.30;58.62
2785;BME280;57944;48.722;9.316;2023-07-20T05:37:25;98005.81;;;21.54;57.94
2785;BME280;57944;48.722;9.316;2023-07-20T05:39:56;98004.75;;;21.60;58.00
2785;BME280;57944;48.722;9.316;2023-07-20T05:42:27;98007.34;;;21.71;57.75
2785;BME280;57944;48.722;9.316;2023-07-20T05:44:58;98007.88;;;21.62;57.80
2785;BME280;57944;48.722;9.316;2023-07-20T05:47:28;98003.94;;;21.70;57.09
2785;BME280;57944;48.722;9.316;2023-07-20T05:50:02;98007.28;;;21.91;56.36
2785;BME280;57944;48.722;9.316;2023-07-20T05:52:33;98004.34;;;22.23;54.92
2785;BME280;57944;48.722;9.316;2023-07-20T05:55:04;98009.41;;;22.49;53.98
2785;BME280;57944;48.722;9.316;2023-07-20T05:57:35;98000.72;;;22.09;54.74
2785;BME280;57944;48.722;9.316;2023-07-20T06:00:10;98006.66;;;22.25;55.33
2785;BME280;57944;48.722;9.316;2023-07-20T06:02:42;98006.09;;;22.33;54.22
2785;BME280;57944;48.722;9.316;2023-07-20T06:05:16;98013.63;;;22.79;53.29
2785;BME280;57944;48.722;9.316;2023-07-20T06:07:47;98008.25;;;23.10;52.67
2785;BME280;57944;48.722;9.316;2023-07-20T06:10:18;98007.59;;;23.23;51.51
2785;BME280;57944;48.722;9.316;2023-07-20T06:12:49;98014.69;;;23.47;51.05
2785;BME280;57944;48.722;9.316;2023-07-20T06:15:26;98002.69;;;23.46;50.67
2785;BME280;57944;48.722;9.316;2023-07-20T06:17:57;98014.09;;;23.55;50.03
2785;BME280;57944;48.722;9.316;2023-07-20T06:20:31;98013.78;;;23.32;49.79
2785;BME280;57944;48.722;9.316;2023-07-20T06:23:01;98015.28;;;23.38;49.82
2785;BME280;57944;48.722;9.316;2023-07-20T06:25:32;98012.72;;;23.33;49.62
2785;BME280;57944;48.722;9.316;2023-07-20T06:28:03;98014.25;;;23.34;50.03
2785;BME280;57944;48.722;9.316;2023-07-20T06:30:34;98012.16;;;23.07;50.10
2785;BME280;57944;48.722;9.316;2023-07-20T06:33:05;98015.81;;;23.35;50.12
2785;BME280;57944;48.722;9.316;2023-07-20T06:35:41;98007.56;;;23.81;48.69
2785;BME280;57944;48.722;9.316;2023-07-20T06:38:11;98005.47;;;23.83;48.63
2785;BME280;57944;48.722;9.316;2023-07-20T06:40:46;98004.13;;;24.10;47.71
2785;BME280;57944;48.722;9.316;2023-07-20T06:43:17;98001.66;;;24.00;47.85
2785;BME280;57944;48.722;9.316;2023-07-20T06:45:53;98004.53;;;23.98;48.35
2785;BME280;57944;48.722;9.316;2023-07-20T06:48:24;98004.13;;;24.10;47.68
2785;BME280;57944;48.722;9.316;2023-07-20T06:50:58;98006.28;;;24.03;47.35
2785;BME280;57944;48.722;9.316;2023-07-20T06:53:29;98007.31;;;23.54;48.77
2785;BME280;57944;48.722;9.316;2023-07-20T06:56:00;98005.31;;;23.46;48.32
2785;BME280;57944;48.722;9.316;2023-07-20T06:58:30;98011.53;;;23.50;48.44
2785;BME280;57944;48.722;9.316;2023-07-20T07:01:05;98009.66;;;23.55;48.65
2785;BME280;57944;48.722;9.316;2023-07-20T07:03:36;98004.81;;;23.68;49.13
2785;BME280;57944;48.722;9.316;2023-07-20T07:06:09;98006.50;;;23.88;48.26
2785;BME280;57944;48.722;9.316;2023-07-20T07:08:40;98010.56;;;23.94;47.85
2785;BME280;57944;48.722;9.316;2023-07-20T07:11:12;98011.53;;;24.22;47.68
2785;BME280;57944;48.722;9.316;2023-07-20T07:13:42;98010.72;;;24.02;47.56
2785;BME280;57944;48.722;9.316;2023-07-20T07:16:14;98001.34;;;24.25;47.79
2785;BME280;57944;48.722;9.316;2023-07-20T07:18:47;98010.41;;;23.56;49.42
2785;BME280;57944;48.722;9.316;2023-07-20T07:21:20;98003.03;;;23.10;49.61
2785;BME280;57944;48.722;9.316;2023-07-20T07:23:51;97998.22;;;22.93;50.75
2785;BME280;57944;48.722;9.316;2023-07-20T07:26:27;98002.03;;;23.06;50.66
2785;BME280;57944;48.722;9.316;2023-07-20T07:28:58;98003.50;;;23.17;51.19
2785;BME280;57944;48.722;9.316;2023-07-20T07:31:30;98001.44;;;23.14;50.29
2785;BME280;57944;48.722;9.316;2023-07-20T07:36:34;97999.66;;;23.09;50.90
2785;BME280;57944;48.722;9.316;2023-07-20T07:39:05;97996.59;;;23.60;49.76
2785;BME280;57944;48.722;9.316;2023-07-20T07:41:39;97993.84;;;24.00;49.40
2785;BME280;57944;48.722;9.316;2023-07-20T07:44:09;97996.56;;;24.33;48.21
2785;BME280;57944;48.722;9.316;2023-07-20T07:46:40;97989.06;;;24.50;47.93
2785;BME280;57944;48.722;9.316;2023-07-20T07:49:10;97993.25;;;24.27;47.45
2785;BME280;57944;48.722;9.316;2023-07-20T07:51:43;97988.41;;;24.58;47.42
2785;BME280;57944;48.722;9.316;2023-07-20T07:54:14;97988.09;;;24.79;46.33
2785;BME280;57944;48.722;9.316;2023-07-20T07:56:45;97994.13;;;24.93;46.13
2785;BME280;57944;48.722;9.316;2023-07-20T07:59:15;97994.31;;;24.83;46.16
2785;BME280;57944;48.722;9.316;2023-07-20T08:01:46;97996.75;;;24.93;46.58
2785;BME280;57944;48.722;9.316;2023-07-20T08:04:17;97998.88;;;25.24;46.72
2785;BME280;57944;48.722;9.316;2023-07-20T08:06:50;97996.81;;;25.53;45.54
2785;BME280;57944;48.722;9.316;2023-07-20T08:09:20;97991.75;;;25.29;44.87
2785;BME280;57944;48.722;9.316;2023-07-20T08:11:51;97989.25;;;25.24;45.16
2785;BME280;57944;48.722;9.316;2023-07-20T08:14:21;97994.75;;;25.36;44.77
2785;BME280;57944;48.722;9.316;2023-07-20T08:16:52;97996.03;;;25.39;43.73
2785;BME280;57944;48.722;9.316;2023-07-20T08:19:23;97996.09;;;25.34;43.70
2785;BME280;57944;48.722;9.316;2023-07-20T08:21:56;97981.25;;;25.62;44.08
2785;BME280;57944;48.722;9.316;2023-07-20T08:24:27;97984.16;;;25.88;43.44
2785;BME280;57944;48.722;9.316;2023-07-20T08:26:58;97981.44;;;25.66;43.66
2785;BME280;57944;48.722;9.316;2023-07-20T08:29:28;97976.81;;;26.40;42.71
2785;BME280;57944;48.722;9.316;2023-07-20T08:31:59;97979.22;;;26.95;40.91
2785;BME280;57944;48.722;9.316;2023-07-20T08:34:29;97972.94;;;26.51;41.74
2785;BME280;57944;48.722;9.316;2023-07-20T08:37:03;97976.47;;;26.33;42.18
2785;BME280;57944;48.722;9.316;2023-07-20T08:39:34;97976.56;;;26.28;42.72
2785;BME280;57944;48.722;9.316;2023-07-20T08:42:05;97973.78;;;26.24;41.31
2785;BME280;57944;48.722;9.316;2023-07-20T08:44:37;97976.69;;;27.13;40.61
2785;BME280;57944;48.722;9.316;2023-07-20T08:47:09;97971.09;;;27.68;38.62
2785;BME280;57944;48.722;9.316;2023-07-20T08:49:41;97972.97;;;28.42;36.76
2785;BME280;57944;48.722;9.316;2023-07-20T08:52:14;97978.78;;;28.65;34.84
2785;BME280;57944;48.722;9.316;2023-07-20T08:54:45;97987.38;;;29.56;34.54
2785;BME280;57944;48.722;9.316;2023-07-20T08:57:16;97974.22;;;30.16;33.32
2785;BME280;57944;48.722;9.316;2023-07-20T08:59:47;97969.13;;;31.19;31.60
2785;BME280;57944;48.722;9.316;2023-07-20T09:02:19;97975.69;;;32.11;31.39
2785;BME280;57944;48.722;9.316;2023-07-20T09:04:53;97973.88;;;32.84;29.98
2785;BME280;57944;48.722;9.316;2023-07-20T09:07:27;97969.56;;;31.33;31.82
2785;BME280;57944;48.722;9.316;2023-07-20T09:09:58;97972.25;;;31.00;31.66
2785;BME280;57944;48.722;9.316;2023-07-20T09:12:35;97971.31;;;30.09;32.16
2785;BME280;57944;48.722;9.316;2023-07-20T09:15:08;97974.84;;;29.92;33.67
2785;BME280;57944;48.722;9.316;2023-07-20T09:17:39;97963.16;;;29.80;33.38
2785;BME280;57944;48.722;9.316;2023-07-20T09:20:10;97966.91;;;28.77;35.12
2785;BME280;57944;48.722;9.316;2023-07-20T09:22:44;97965.53;;;29.73;33.69
2785;BME280;57944;48.722;9.316;2023-07-20T09:25:16;97954.50;;;29.80;33.02
2785;BME280;57944;48.722;9.316;2023-07-20T09:27:49;97961.47;;;30.81;31.90
2785;BME280;57944;48.722;9.316;2023-07-20T09:30:25;97953.31;;;31.19;31.22
2785;BME280;57944;48.722;9.316;2023-07-20T09:32:59;97956.41;;;31.21;30.47
2785;BME280;57944;48.722;9.316;2023-07-20T09:35:30;97959.25;;;33.34;28.29
2785;BME280;57944;48.722;9.316;2023-07-20T09:38:12;97960.47;;;34.26;27.01
2785;BME280;57944;48.722;9.316;2023-07-20T09:40:50;97963.19;;;33.08;27.92
2785;BME280;57944;48.722;9.316;2023-07-20T09:43:24;97954.03;;;30.62;31.85
2785;BME280;57944;48.722;9.316;2023-07-20T09:45:59;97961.53;;;29.58;32.32
2785;BME280;57944;48.722;9.316;2023-07-20T09:48:30;97960.81;;;29.88;32.49
2785;BME280;57944;48.722;9.316;2023-07-20T09:51:22;97961.84;;;29.95;32.26
2785;BME280;57944;48.722;9.316;2023-07-20T09:53:56;97954.25;;;32.13;29.51
2785;BME280;57944;48.722;9.316;2023-07-20T09:56:27;97957.41;;;33.19;28.19
2785;BME280;57944;48.722;9.316;2023-07-20T09:58:58;97953.97;;;31.77;29.11
2785;BME280;57944;48.722;9.316;2023-07-20T10:01:30;97958.31;;;30.33;30.73
2785;BME280;57944;48.722;9.316;2023-07-20T10:04:04;97956.06;;;29.04;32.76
2785;BME280;57944;48.722;9.316;2023-07-20T10:06:42;97941.91;;;28.36;33.44
2785;BME280;57944;48.722;9.316;2023-07-20T10:09:16;97944.53;;;28.10;34.17
2785;BME280;57944;48.722;9.316;2023-07-20T10:11:50;97946.03;;;28.98;33.54
2785;BME280;57944;48.722;9.316;2023-07-20T10:14:44;97947.50;;;30.35;31.91
2785;BME280;57944;48.722;9.316;2023-07-20T10:17:21;97939.94;;;31.61;30.66
2785;BME280;57944;48.722;9.316;2023-07-20T10:19:56;97936.00;;;33.08;28.39
2785;BME280;57944;48.722;9.316;2023-07-20T10:22:28;97933.69;;;33.38;27.84
2785;BME280;57944;48.722;9.316;2023-07-20T10:25:11;97932.56;;;33.39;27.65
2785;BME280;57944;48.722;9.316;2023-07-20T10:27:42;97925.28;;;34.45;26.40
2785;BME280;57944;48.722;9.316;2023-07-20T10:30:13;97923.09;;;36.34;24.54
2785;BME280;57944;48.722;9.316;2023-07-20T10:32:45;97924.06;;;35.88;25.08
2785;BME280;57944;48.722;9.316;2023-07-20T10:35:17;97920.41;;;34.90;24.80
2785;BME280;57944;48.722;9.316;2023-07-20T10:37:52;97909.50;;;35.18;25.09
2785;BME280;57944;48.722;9.316;2023-07-20T10:40:32;97919.56;;;36.60;23.52
2785;BME280;57944;48.722;9.316;2023-07-20T10:43:04;97899.00;;;37.56;22.30
2785;BME280;57944;48.722;9.316;2023-07-20T10:45:37;97903.44;;;37.42;21.77
2785;BME280;57944;48.722;9.316;2023-07-20T10:48:16;97898.91;;;35.45;23.84
2785;BME280;57944;48.722;9.316;2023-07-20T10:51:14;97899.72;;;32.45;27.29
2785;BME280;57944;48.722;9.316;2023-07-20T10:53:50;97899.59;;;32.25;28.00
2785;BME280;57944;48.722;9.316;2023-07-20T10:56:23;97891.81;;;30.78;29.82
2785;BME280;57944;48.722;9.316;2023-07-20T10:58:58;97896.13;;;29.45;30.98
2785;BME280;57944;48.722;9.316;2023-07-20T11:01:30;97892.13;;;28.44;32.13
2785;BME280;57944;48.722;9.316;2023-07-20T11:04:02;97893.06;;;28.48;32.25
2785;BME280;57944;48.722;9.316;2023-07-20T11:06:43;97887.03;;;28.04;32.96
2785;BME280;57944;48.722;9.316;2023-07-20T11:09:15;97892.53;;;29.28;31.93
2785;BME280;57944;48.722;9.316;2023-07-20T11:11:47;97885.50;;;31.65;28.67
2785;BME280;57944;48.722;9.316;2023-07-20T11:14:22;97889.91;;;32.74;26.68
2785;BME280;57944;48.722;9.316;2023-07-20T11:16:53;97888.53;;;33.11;26.77
2785;BME280;57944;48.722;9.316;2023-07-20T11:19:25;97884.88;;;32.53;26.73
2785;BME280;57944;48.722;9.316;2023-07-20T11:22:05;97882.97;;;31.69;27.10
2785;BME280;57944;48.722;9.316;2023-07-20T11:24:39;97884.78;;;30.24;30.09
2785;BME280;57944;48.722;9.316;2023-07-20T11:27:10;97884.78;;;30.24;29.88
2785;BME280;57944;48.722;9.316;2023-07-20T11:29:41;97884.19;;;30.85;28.63
2785;BME280;57944;48.722;9.316;2023-07-20T11:32:11;97881.78;;;30.92;28.89
2785;BME280;57944;48.722;9.316;2023-07-20T11:34:42;97875.69;;;29.80;29.66
2785;BME280;57944;48.722;9.316;2023-07-20T11:37:19;97872.16;;;29.97;29.43
2785;BME280;57944;48.722;9.316;2023-07-20T11:39:56;97872.53;;;30.74;28.66
2785;BME280;57944;48.722;9.316;2023-07-20T11:42:26;97871.34;;;32.54;26.49
2785;BME280;57944;48.722;9.316;2023-07-20T11:45:01;97870.66;;;32.89;25.48
2785;BME280;57944;48.722;9.316;2023-07-20T11:47:33;97866.63;;;33.62;24.91
2785;BME280;57944;48.722;9.316;2023-07-20T11:50:05;97861.75;;;33.29;25.34
2785;BME280;57944;48.722;9.316;2023-07-20T11:52:38;97861.84;;;33.32;24.83
2785;BME280;57944;48.722;9.316;2023-07-20T11:55:09;97859.59;;;32.67;25.46
2785;BME280;57944;48.722;9.316;2023-07-20T11:57:40;97852.28;;;32.77;25.61
2785;BME280;57944;48.722;9.316;2023-07-20T12:00:12;97850.38;;;32.93;24.83
2785;BME280;57944;48.722;9.316;2023-07-20T12:02:43;97855.59;;;33.05;25.21
2785;BME280;57944;48.722;9.316;2023-07-20T12:05:14;97847.19;;;31.55;26.05
2785;BME280;57944;48.722;9.316;2023-07-20T12:07:47;97851.56;;;29.06;28.85
2785;BME280;57944;48.722;9.316;2023-07-20T12:10:25;97850.16;;;29.59;28.72
2785;BME280;57944;48.722;9.316;2023-07-20T12:13:02;97832.44;;;29.98;28.09
2785;BME280;57944;48.722;9.316;2023-07-20T12:15:35;97836.13;;;29.97;28.22
2785;BME280;57944;48.722;9.316;2023-07-20T12:18:05;97833.22;;;30.32;27.51
2785;BME280;57944;48.722;9.316;2023-07-20T12:20:37;97837.09;;;31.57;26.72
2785;BME280;57944;48.722;9.316;2023-07-20T12:23:13;97838.25;;;32.28;26.19
2785;BME280;57944;48.722;9.316;2023-07-20T12:25:46;97839.53;;;31.78;25.75
2785;BME280;57944;48.722;9.316;2023-07-20T12:28:19;97835.00;;;32.19;25.92
2785;BME280;57944;48.722;9.316;2023-07-20T12:30:49;97827.88;;;32.36;25.34
2785;BME280;57944;48.722;9.316;2023-07-20T12:33:24;97832.06;;;31.28;26.70
2785;BME280;57944;48.722;9.316;2023-07-20T12:35:55;97826.06;;;29.99;27.73
2785;BME280;57944;48.722;9.316;2023-07-20T12:38:29;97823.69;;;28.28;29.92
2785;BME280;57944;48.722;9.316;2023-07-20T12:41:01;97817.75;;;30.31;28.04
2785;BME280;57944;48.722;9.316;2023-07-20T12:43:32;97825.63;;;30.88;26.12
2785;BME280;57944;48.722;9.316;2023-07-20T12:46:02;97810.78;;;31.33;26.26
2785;BME280;57944;48.722;9.316;2023-07-20T12:48:33;97812.63;;;32.57;24.85
2785;BME280;57944;48.722;9.316;2023-07-20T12:51:04;97824.06;;;33.32;23.56
2785;BME280;57944;48.722;9.316;2023-07-20T12:53:37;97813.50;;;32.33;24.79
2785;BME280;57944;48.722;9.316;2023-07-20T12:56:08;97805.72;;;31.52;25.36
2785;BME280;57944;48.722;9.316;2023-07-20T12:58:41;97801.00;;;31.33;26.20
2785;BME280;57944;48.722;9.316;2023-07-20T13:01:12;97795.41;;;30.37;26.35
2785;BME280;57944;48.722;9.316;2023-07-20T13:03:43;97795.78;;;31.09;26.46
2785;BME280;57944;48.722;9.316;2023-07-20T13:06:17;97801.03;;;32.46;25.02
2785;BME280;57944;48.722;9.316;2023-07-20T13:08:53;97800.84;;;33.02;24.31
2785;BME280;57944;48.722;9.316;2023-07-20T13:11:25;97787.72;;;31.42;25.38
2785;BME280;57944;48.722;9.316;2023-07-20T13:13:56;97781.25;;;31.52;25.60
2785;BME280;57944;48.722;9.316;2023-07-20T13:16:27;97784.03;;;31.71;25.91
2785;BME280;57944;48.722;9.316;2023-07-20T13:18:57;97789.38;;;32.03;24.74
2785;BME280;57944;48.722;9.316;2023-07-20T13:21:28;97790.84;;;32.96;23.70
2785;BME280;57944;48.722;9.316;2023-07-20T13:24:01;97789.94;;;31.40;26.00
2785;BME280;57944;48.722;9.316;2023-07-20T13:26:32;97787.13;;;30.14;27.69
2785;BME280;57944;48.722;9.316;2023-07-20T13:29:03;97780.00;;;29.60;27.86
2785;BME280;57944;48.722;9.316;2023-07-20T13:31:33;97791.88;;;28.39;29.74
2785;BME280;57944;48.722;9.316;2023-07-20T13:34:06;97779.78;;;27.73;30.25
2785;BME280;57944;48.722;9.316;2023-07-20T13:36:37;97775.28;;;28.26;29.51
2785;BME280;57944;48.722;9.316;2023-07-20T13:39:13;97771.22;;;30.43;27.43
2785;BME280;57944;48.722;9.316;2023-07-20T13:41:44;97768.69;;;31.61;25.90